createdAt,value
2022-12-06T00:01:13.299Z,69.66
2022-12-06T00:03:41.808Z,69.82
2022-12-06T00:06:14.909Z,69.51
2022-12-06T00:08:41.850Z,69.77
2022-12-06T00:11:10.710Z,68.99
2022-12-06T00:13:40.872Z,69.42
2022-12-06T00:16:10.826Z,69.68
2022-12-06T00:18:38.453Z,69.86
2022-12-06T00:21:28.266Z,68.99
2022-12-06T00:24:05.995Z,68.16
2022-12-06T00:26:35.800Z,68.25
2022-12-06T00:29:03.655Z,69.52
2022-12-06T00:31:31.579Z,68.97
2022-12-06T00:33:58.630Z,68.42
2022-12-06T00:36:28.054Z,68.75
2022-12-06T00:38:54.919Z,68.65
2022-12-06T00:41:25.174Z,68.89
2022-12-06T00:43:52.718Z,67.93
2022-12-06T00:46:24.767Z,68.47
2022-12-06T00:48:52.344Z,68.43
2022-12-06T00:51:20.412Z,69.07
2022-12-06T00:53:47.399Z,69.18
2022-12-06T00:56:20.299Z,69.31
2022-12-06T00:58:47.331Z,69.70
2022-12-06T01:01:20.671Z,69.24
2022-12-06T01:03:51.373Z,68.15
2022-12-06T01:06:19.604Z,68.13
2022-12-06T01:08:46.301Z,68.64
2022-12-06T01:11:14.459Z,68.25
2022-12-06T01:13:42.537Z,68.12
2022-12-06T01:16:14.928Z,68.44
2022-12-06T01:18:42.403Z,68.99
2022-12-06T01:21:16.081Z,69.07
2022-12-06T01:23:43.960Z,69.20
2022-12-06T01:26:19.038Z,68.92
2022-12-06T01:28:46.111Z,68.47
2022-12-06T01:31:13.166Z,68.61
2022-12-06T01:33:39.906Z,68.72
2022-12-06T01:36:06.750Z,68.74
2022-12-06T01:38:33.539Z,69.17
2022-12-06T01:41:00.374Z,69.28
2022-12-06T01:43:43.472Z,68.98
2022-12-06T01:46:25.406Z,69.17
2022-12-06T01:48:55.921Z,69.07
2022-12-06T01:51:22.618Z,69.70
2022-12-06T01:53:50.821Z,69.45
2022-12-06T01:56:17.289Z,69.36
2022-12-06T01:58:45.570Z,69.38
2022-12-06T02:01:12.127Z,69.04
2022-12-06T02:03:38.950Z,69.08
2022-12-06T02:06:08.199Z,69.03
2022-12-06T02:08:35.838Z,69.47
2022-12-06T02:11:04.154Z,69.20
2022-12-06T02:13:30.702Z,69.22
2022-12-06T02:16:03.344Z,69.08
2022-12-06T02:19:21.324Z,69.15
2022-12-06T02:22:03.159Z,69.33
2022-12-06T02:24:39.632Z,69.01
2022-12-06T02:27:35.174Z,69.35
2022-12-06T02:30:11.210Z,69.30
2022-12-06T02:32:49.205Z,68.79
2022-12-06T02:35:30.283Z,68.32
2022-12-06T02:38:16.675Z,67.22
2022-12-06T02:40:59.347Z,67.27
2022-12-06T02:43:36.004Z,68.42
2022-12-06T02:46:03.867Z,67.97
2022-12-06T02:48:31.595Z,68.51
2022-12-06T02:51:04.878Z,68.66
2022-12-06T02:53:33.078Z,68.46
2022-12-06T02:55:59.560Z,69.09
2022-12-06T02:58:26.419Z,68.87
2022-12-06T03:00:56.653Z,68.96
2022-12-06T03:03:44.913Z,69.06
2022-12-06T03:06:11.838Z,68.20
2022-12-06T03:09:16.163Z,67.87
2022-12-06T03:12:00.609Z,68.07
2022-12-06T03:14:28.980Z,67.88
2022-12-06T03:17:04.835Z,68.84
2022-12-06T03:19:33.146Z,67.45
2022-12-06T03:22:07.308Z,66.91
2022-12-06T03:24:36.459Z,67.97
2022-12-06T03:27:09.722Z,68.78
2022-12-06T03:29:40.754Z,68.12
2022-12-06T03:32:08.143Z,68.26
2022-12-06T03:34:43.838Z,67.91
2022-12-06T03:37:14.870Z,68.48
2022-12-06T03:39:46.854Z,68.11
2022-12-06T03:42:14.332Z,69.11
2022-12-06T03:44:40.998Z,69.54
2022-12-06T03:47:29.384Z,69.01
2022-12-06T03:50:01.354Z,68.79
2022-12-06T03:52:29.194Z,68.16
2022-12-06T03:54:58.506Z,67.89
2022-12-06T03:57:25.223Z,68.52
2022-12-06T03:59:51.801Z,69.29
2022-12-06T04:02:18.447Z,69.03
2022-12-06T04:04:45.143Z,68.47
2022-12-06T04:07:12.181Z,68.33
2022-12-06T04:09:56.415Z,69.01
2022-12-06T04:12:42.170Z,69.02
2022-12-06T04:15:09.865Z,69.04
2022-12-06T04:17:58.793Z,69.33
2022-12-06T04:20:26.616Z,69.21
2022-12-06T04:23:05.680Z,68.89
2022-12-06T04:25:34.317Z,69.14
2022-12-06T04:28:20.067Z,68.10
2022-12-06T04:31:05.276Z,67.06
2022-12-06T04:33:50.610Z,68.52
2022-12-06T04:36:36.021Z,67.70
2022-12-06T04:39:02.584Z,68.66
2022-12-06T04:41:47.824Z,68.54
2022-12-06T04:44:14.400Z,69.09
2022-12-06T04:46:41.035Z,69.03
2022-12-06T04:49:07.733Z,69.26
2022-12-06T04:51:34.854Z,69.01
2022-12-06T04:54:01.622Z,68.84
2022-12-06T04:56:28.414Z,68.69
2022-12-06T04:58:55.077Z,67.75
2022-12-06T05:01:21.801Z,67.77
2022-12-06T05:03:48.489Z,67.50
2022-12-06T05:06:15.413Z,68.16
2022-12-06T05:08:41.903Z,68.24
2022-12-06T05:11:08.399Z,68.39
2022-12-06T05:13:35.730Z,68.50
2022-12-06T05:16:04.730Z,69.06
2022-12-06T05:18:31.674Z,68.84
2022-12-06T05:21:14.609Z,68.63
2022-12-06T05:23:41.571Z,67.63
2022-12-06T05:26:12.311Z,67.76
2022-12-06T05:28:38.957Z,67.27
2022-12-06T05:31:05.686Z,67.87
2022-12-06T05:33:32.531Z,68.96
2022-12-06T05:35:59.139Z,68.12
2022-12-06T05:38:25.751Z,67.65
2022-12-06T05:40:52.318Z,67.51
2022-12-06T05:43:18.821Z,67.95
2022-12-06T05:45:45.466Z,67.30
2022-12-06T05:48:12.171Z,67.46
2022-12-06T05:50:38.811Z,67.15
2022-12-06T05:53:06.079Z,67.91
2022-12-06T05:55:32.677Z,67.58
2022-12-06T05:57:59.274Z,68.13
2022-12-06T06:00:25.982Z,68.19
2022-12-06T06:02:52.612Z,68.08
2022-12-06T06:05:19.650Z,67.54
2022-12-06T06:07:46.328Z,68.25
2022-12-06T06:10:13.427Z,67.61
2022-12-06T06:12:40.072Z,67.08
2022-12-06T06:15:07.221Z,66.86
2022-12-06T06:17:35.011Z,66.84
2022-12-06T06:20:05.707Z,67.16
2022-12-06T06:22:33.908Z,67.13
2022-12-06T06:25:00.729Z,67.46
2022-12-06T06:27:28.069Z,67.66
2022-12-06T06:29:54.863Z,67.00
2022-12-06T06:32:21.475Z,67.51
2022-12-06T06:34:48.169Z,68.98
2022-12-06T06:37:14.729Z,68.16
2022-12-06T06:39:41.511Z,68.96
2022-12-06T06:42:08.130Z,69.22
2022-12-06T06:44:34.751Z,69.12
2022-12-06T06:47:01.294Z,69.08
2022-12-06T06:49:27.908Z,68.82
2022-12-06T06:51:54.458Z,69.19
2022-12-06T06:54:21.283Z,68.94
2022-12-06T06:56:47.840Z,68.85
2022-12-06T06:59:14.350Z,68.52
2022-12-06T07:01:40.917Z,68.35
2022-12-06T07:04:10.548Z,68.93
2022-12-06T07:06:37.164Z,68.63
2022-12-06T07:09:03.935Z,67.96
2022-12-06T07:11:30.611Z,69.26
2022-12-06T07:13:58.827Z,68.96
2022-12-06T07:16:25.690Z,69.48
2022-12-06T07:18:53.021Z,69.43
2022-12-06T07:21:22.217Z,69.36
2022-12-06T07:23:55.499Z,69.35
2022-12-06T07:26:26.346Z,69.11
2022-12-06T07:28:53.299Z,68.79
2022-12-06T07:31:23.100Z,67.86
2022-12-06T07:33:55.108Z,68.15
2022-12-06T07:36:23.277Z,67.99
2022-12-06T07:38:51.068Z,67.75
2022-12-06T07:41:40.686Z,67.37
2022-12-06T07:44:38.317Z,67.23
2022-12-06T07:47:04.936Z,67.63
2022-12-06T07:49:31.644Z,66.76
2022-12-06T07:51:58.278Z,67.69
2022-12-06T07:54:25.062Z,68.52
2022-12-06T07:56:51.951Z,67.70
2022-12-06T07:59:18.678Z,67.96
2022-12-06T08:01:45.446Z,68.02
2022-12-06T08:04:12.357Z,67.54
2022-12-06T08:06:42.577Z,67.08
2022-12-06T08:09:12.177Z,67.37
2022-12-06T08:11:42.235Z,67.58
2022-12-06T08:14:15.763Z,68.10
2022-12-06T08:16:58.505Z,66.67
2022-12-06T08:19:27.641Z,66.69
2022-12-06T08:21:54.217Z,66.40
2022-12-06T08:24:24.022Z,66.86
2022-12-06T08:26:53.740Z,66.55
2022-12-06T08:29:21.947Z,66.98
2022-12-06T08:31:48.470Z,67.66
2022-12-06T08:34:15.490Z,67.32
2022-12-06T08:36:51.349Z,67.62
2022-12-06T08:39:24.922Z,68.36
2022-12-06T08:42:02.923Z,67.68
2022-12-06T08:44:33.329Z,66.78
2022-12-06T08:47:01.541Z,67.58
2022-12-06T08:49:31.549Z,67.69
2022-12-06T08:52:04.527Z,67.94
2022-12-06T08:54:31.193Z,67.76
2022-12-06T08:56:57.840Z,67.50
2022-12-06T08:59:24.492Z,66.11
2022-12-06T09:01:54.105Z,67.09
2022-12-06T09:04:20.827Z,67.27
2022-12-06T09:06:48.837Z,66.24
2022-12-06T09:09:20.331Z,66.45
2022-12-06T09:11:49.404Z,67.18
2022-12-06T09:14:21.442Z,67.28
2022-12-06T09:16:49.070Z,68.98
2022-12-06T09:19:15.685Z,66.97
2022-12-06T09:21:43.219Z,66.91
2022-12-06T09:24:13.819Z,66.55
2022-12-06T09:26:41.068Z,66.43
2022-12-06T09:29:08.404Z,66.36
2022-12-06T09:31:39.301Z,67.35
2022-12-06T09:34:10.158Z,66.42
2022-12-06T09:37:11.179Z,66.25
2022-12-06T09:39:40.532Z,67.29
2022-12-06T09:42:26.290Z,67.96
2022-12-06T09:45:01.340Z,67.98
2022-12-06T09:47:44.536Z,67.67
2022-12-06T09:50:29.922Z,67.81
2022-12-06T09:53:28.937Z,67.34
2022-12-06T09:56:09.127Z,66.95
2022-12-06T09:58:54.353Z,66.98
2022-12-06T10:01:48.816Z,67.85
2022-12-06T10:04:35.833Z,68.50
2022-12-06T10:07:16.336Z,69.06
2022-12-06T10:09:51.668Z,69.17
2022-12-06T10:12:29.857Z,68.70
2022-12-06T10:15:19.217Z,68.62
2022-12-06T10:18:16.095Z,68.84
2022-12-06T10:20:54.162Z,71.84
2022-12-06T10:23:36.493Z,72.11
2022-12-06T10:26:17.346Z,71.56
2022-12-06T10:28:47.192Z,71.56
2022-12-06T10:31:23.066Z,72.05
2022-12-06T10:33:58.164Z,71.56
2022-12-06T10:36:47.867Z,70.55
2022-12-06T10:39:20.417Z,72.03
2022-12-06T10:41:54.287Z,71.25
2022-12-06T10:44:20.830Z,72.38
2022-12-06T10:47:06.312Z,72.26
2022-12-06T10:49:41.996Z,70.47
2022-12-06T10:52:36.151Z,70.97
2022-12-06T10:55:05.553Z,71.53
2022-12-06T10:57:43.315Z,70.69
2022-12-06T11:00:22.829Z,70.25
2022-12-06T11:03:13.483Z,70.10
2022-12-06T11:05:49.102Z,71.39
2022-12-06T11:08:19.174Z,70.99
2022-12-06T11:10:46.874Z,72.63
2022-12-06T11:14:05.626Z,71.94
2022-12-06T11:16:47.665Z,69.99
2022-12-06T11:19:32.560Z,69.71
2022-12-06T11:22:04.865Z,71.17
2022-12-06T11:24:56.587Z,71.22
2022-12-06T11:27:34.714Z,70.30
2022-12-06T11:30:19.542Z,69.95
2022-12-06T11:32:48.885Z,70.43
2022-12-06T11:35:26.658Z,69.59
2022-12-06T11:37:57.233Z,68.98
2022-12-06T11:43:21.546Z,69.24
2022-12-06T11:45:50.973Z,69.87
2022-12-06T11:48:20.229Z,69.96
2022-12-06T11:50:48.552Z,70.50
2022-12-06T11:53:27.447Z,71.03
2022-12-06T11:55:58.958Z,71.55
2022-12-06T11:58:42.755Z,71.40
2022-12-06T12:01:13.919Z,70.16
2022-12-06T12:03:43.038Z,69.89
2022-12-06T12:06:18.373Z,70.03
2022-12-06T12:09:01.536Z,70.82
2022-12-06T12:11:31.883Z,70.02
2022-12-06T12:14:01.801Z,69.68
2022-12-06T12:16:38.292Z,70.82
2022-12-06T12:19:30.542Z,73.22
2022-12-06T12:21:59.163Z,73.99
2022-12-06T12:25:17.999Z,74.25
2022-12-06T12:27:35.973Z,73.81
2022-12-06T12:30:28.913Z,72.91
2022-12-06T12:33:07.629Z,71.14
2022-12-06T12:35:41.274Z,71.82
2022-12-06T12:38:12.723Z,72.50
2022-12-06T12:40:42.588Z,72.65
2022-12-06T12:43:16.772Z,71.60
2022-12-06T12:46:02.899Z,72.29
2022-12-06T12:48:34.500Z,72.05
2022-12-06T12:51:04.337Z,72.91
2022-12-06T12:53:42.203Z,72.55
2022-12-06T12:56:13.292Z,71.93
2022-12-06T12:58:40.647Z,72.03
2022-12-06T13:01:25.732Z,72.02
2022-12-06T13:04:19.892Z,73.88
2022-12-06T13:06:50.368Z,72.35
2022-12-06T13:10:02.287Z,72.41
2022-12-06T13:12:41.980Z,72.05
2022-12-06T13:15:28.745Z,72.40
2022-12-06T13:18:00.241Z,73.50
2022-12-06T13:20:32.528Z,71.74
2022-12-06T13:23:04.600Z,71.02
2022-12-06T13:25:31.436Z,71.00
2022-12-06T13:28:05.178Z,69.70
2022-12-06T13:30:34.266Z,69.53
2022-12-06T13:33:21.136Z,69.44
2022-12-06T13:36:09.496Z,69.15
2022-12-06T13:38:38.432Z,69.31
2022-12-06T13:41:36.707Z,69.34
2022-12-06T13:44:03.262Z,69.49
2022-12-06T13:46:31.184Z,70.85
2022-12-06T13:49:03.171Z,69.70
2022-12-06T13:51:32.928Z,68.90
2022-12-06T13:54:05.420Z,69.67
2022-12-06T13:56:35.099Z,68.41
2022-12-06T13:59:11.772Z,68.72
2022-12-06T14:01:48.956Z,68.36
2022-12-06T14:04:42.530Z,70.00
2022-12-06T14:09:43.853Z,70.27
2022-12-06T14:12:29.316Z,69.53
2022-12-06T14:15:01.467Z,68.44
2022-12-06T14:20:29.674Z,70.48
2022-12-06T14:22:56.296Z,70.08
2022-12-06T14:25:25.406Z,69.88
2022-12-06T14:28:02.484Z,69.23
2022-12-06T14:30:29.293Z,68.88
2022-12-06T14:32:57.880Z,69.67
2022-12-06T14:35:30.009Z,69.50
2022-12-06T14:37:59.481Z,68.75
2022-12-06T14:41:02.412Z,70.70
2022-12-06T14:43:31.738Z,70.91
2022-12-06T14:46:00.300Z,71.30
2022-12-06T14:48:27.187Z,69.35
2022-12-06T14:50:56.702Z,68.19
2022-12-06T14:53:34.125Z,68.38
2022-12-06T14:56:24.770Z,66.92
2022-12-06T14:58:51.648Z,67.06
2022-12-06T15:01:23.574Z,66.54
2022-12-06T15:04:04.657Z,66.33
2022-12-06T15:06:33.315Z,66.80
2022-12-06T15:09:00.395Z,66.66
2022-12-06T15:11:51.635Z,66.83
2022-12-06T15:14:27.259Z,67.53
2022-12-06T15:17:15.200Z,67.16
2022-12-06T15:19:54.095Z,67.17
2022-12-06T15:22:25.388Z,66.69
2022-12-06T15:24:55.322Z,66.16
2022-12-06T15:27:23.559Z,66.40
2022-12-06T15:29:50.223Z,67.19
2022-12-06T15:32:18.119Z,67.75
2022-12-06T15:34:45.731Z,67.47
2022-12-06T15:40:02.065Z,67.05
2022-12-06T15:42:28.736Z,66.62
2022-12-06T15:44:56.316Z,66.60
2022-12-06T15:47:23.100Z,67.34
2022-12-06T15:49:52.409Z,67.30
2022-12-06T15:52:23.060Z,67.32
2022-12-06T15:54:49.922Z,66.66
2022-12-06T15:57:16.503Z,66.33
2022-12-06T15:59:43.044Z,66.74
2022-12-06T16:02:15.235Z,66.72
2022-12-06T16:04:43.048Z,66.40
2022-12-06T16:07:10.580Z,66.41
2022-12-06T16:09:37.574Z,67.38
2022-12-06T16:12:04.394Z,67.85
2022-12-06T16:14:30.952Z,66.53
2022-12-06T16:16:57.609Z,66.41
2022-12-06T16:19:24.171Z,67.44
2022-12-06T16:21:56.233Z,66.40
2022-12-06T16:24:23.072Z,66.44
2022-12-06T16:26:49.671Z,66.35
2022-12-06T16:29:23.115Z,66.00
2022-12-06T16:31:51.034Z,66.18
2022-12-06T16:43:56.347Z,65.64
2022-12-06T16:46:34.278Z,66.85
2022-12-06T16:49:22.625Z,66.14
2022-12-06T16:51:53.054Z,65.68
2022-12-06T16:54:19.805Z,66.06
2022-12-06T16:56:46.482Z,66.15
2022-12-06T16:59:17.300Z,66.50
2022-12-06T17:01:48.705Z,65.90
2022-12-06T17:04:15.427Z,66.26
2022-12-06T17:06:41.998Z,66.11
2022-12-06T17:09:10.452Z,65.39
2022-12-06T17:11:55.698Z,65.96
2022-12-06T17:14:25.283Z,65.69
2022-12-06T17:16:52.636Z,65.23
2022-12-06T17:19:21.738Z,65.62
2022-12-06T17:21:49.140Z,64.97
2022-12-06T17:24:16.497Z,66.34
2022-12-06T17:26:43.259Z,65.98
2022-12-06T17:29:09.895Z,65.79
2022-12-06T17:31:37.965Z,65.99
2022-12-06T17:34:05.441Z,65.29
2022-12-06T17:36:32.165Z,65.03
2022-12-06T17:39:01.997Z,65.45
2022-12-06T17:41:51.797Z,65.47
2022-12-06T17:44:19.312Z,65.29
2022-12-06T17:46:46.302Z,65.39
2022-12-06T17:49:14.915Z,65.79
2022-12-06T17:51:41.587Z,65.41
2022-12-06T17:54:09.555Z,65.27
2022-12-06T17:56:36.935Z,65.67
2022-12-06T17:59:09.531Z,65.68
2022-12-06T18:01:58.536Z,65.55
2022-12-06T18:04:23.508Z,65.58
2022-12-06T18:06:50.137Z,65.32
2022-12-06T18:09:16.668Z,65.72
2022-12-06T18:11:43.636Z,65.50
2022-12-06T18:14:12.345Z,65.43
2022-12-06T18:16:40.592Z,65.17
2022-12-06T18:19:08.855Z,65.28
2022-12-06T18:21:36.533Z,65.68
2022-12-06T18:24:22.010Z,65.20
2022-12-06T18:26:49.279Z,64.84
2022-12-06T18:29:18.401Z,65.03
2022-12-06T18:31:45.307Z,64.95
2022-12-06T18:34:12.447Z,64.12
2022-12-06T18:36:40.413Z,64.25
2022-12-06T18:39:14.378Z,63.86
2022-12-06T18:41:41.292Z,63.99
2022-12-06T18:44:09.447Z,63.80
2022-12-06T18:46:38.008Z,64.67
2022-12-06T18:49:04.828Z,64.78
2022-12-06T18:51:34.067Z,64.51
2022-12-06T18:54:02.304Z,63.84
2022-12-06T18:56:31.808Z,63.61
2022-12-06T18:59:00.221Z,63.97
2022-12-06T19:01:29.611Z,64.66
2022-12-06T19:03:59.468Z,65.30
2022-12-06T19:06:28.213Z,64.76
2022-12-06T19:09:01.270Z,64.36
2022-12-06T19:11:28.050Z,63.94
2022-12-06T19:13:56.105Z,64.38
2022-12-06T19:16:28.017Z,64.54
2022-12-06T19:18:56.822Z,64.76
2022-12-06T19:21:24.472Z,64.79
2022-12-06T19:23:54.999Z,65.28
2022-12-06T19:26:22.072Z,65.74
2022-12-06T19:28:48.619Z,65.86
2022-12-06T19:31:15.576Z,65.95
2022-12-06T19:33:43.968Z,67.82
2022-12-06T19:36:20.060Z,66.31
2022-12-06T19:38:46.606Z,67.41
2022-12-06T19:41:15.495Z,66.82
2022-12-06T19:44:00.386Z,66.80
2022-12-06T19:46:29.115Z,66.63
2022-12-06T19:48:57.297Z,66.55
2022-12-06T19:51:26.736Z,67.13
2022-12-06T19:53:53.311Z,66.62
2022-12-06T19:56:20.203Z,66.51
2022-12-06T19:58:47.667Z,68.32
2022-12-06T20:01:18.553Z,66.93
2022-12-06T20:03:47.177Z,66.44
2022-12-06T20:06:18.314Z,66.73
2022-12-06T20:08:46.250Z,67.71
2022-12-06T20:11:34.830Z,67.89
2022-12-06T20:14:02.792Z,67.54
2022-12-06T20:16:30.527Z,67.91
2022-12-06T20:18:57.017Z,67.23
2022-12-06T20:21:23.995Z,66.86
2022-12-06T20:23:50.730Z,67.03
2022-12-06T20:26:17.502Z,67.35
2022-12-06T20:28:45.085Z,67.14
2022-12-06T20:31:14.749Z,66.51
2022-12-06T20:33:41.358Z,66.37
2022-12-06T20:36:16.966Z,66.58
2022-12-06T20:38:43.627Z,65.96
2022-12-06T20:41:11.872Z,65.90
2022-12-06T20:43:38.682Z,65.96
2022-12-06T20:46:11.599Z,65.86
2022-12-06T20:48:41.916Z,66.78
2022-12-06T20:51:10.984Z,66.48
2022-12-06T20:53:37.527Z,66.81
2022-12-06T20:56:05.208Z,65.50
2022-12-06T20:58:31.740Z,65.17
2022-12-06T21:00:58.977Z,66.08
2022-12-06T21:03:25.862Z,65.53
2022-12-06T21:06:02.042Z,66.94
2022-12-06T21:08:29.140Z,66.35
2022-12-06T21:11:21.669Z,65.96
2022-12-06T21:13:43.257Z,66.16
2022-12-06T21:16:14.938Z,66.67
2022-12-06T21:18:42.681Z,66.56
2022-12-06T21:21:09.513Z,66.64
2022-12-06T21:23:36.036Z,68.17
2022-12-06T21:26:04.186Z,67.14
2022-12-06T21:28:31.080Z,67.88
2022-12-06T21:30:57.730Z,66.95
2022-12-06T21:33:25.071Z,66.96
2022-12-06T21:35:52.399Z,68.21
2022-12-06T21:38:19.038Z,67.34
2022-12-06T21:40:49.382Z,66.00
2022-12-06T21:43:19.561Z,66.59
2022-12-06T21:45:46.099Z,66.76
2022-12-06T21:48:12.764Z,66.03
2022-12-06T21:50:39.334Z,65.68
2022-12-06T21:53:05.836Z,67.41
2022-12-06T21:55:32.345Z,66.72
2022-12-06T21:57:58.870Z,66.77
2022-12-06T22:00:25.374Z,67.46
2022-12-06T22:02:52.503Z,67.42
2022-12-06T22:05:19.126Z,67.51
2022-12-06T22:07:45.766Z,66.43
2022-12-06T22:10:12.450Z,67.18
2022-12-06T22:12:39.114Z,67.27
2022-12-06T22:15:06.429Z,66.92
2022-12-06T22:17:33.260Z,68.89
2022-12-06T22:20:00.343Z,68.18
2022-12-06T22:22:27.229Z,68.32
2022-12-06T22:24:53.989Z,68.55
2022-12-06T22:27:20.517Z,71.03
2022-12-06T22:29:47.585Z,69.60
2022-12-06T22:32:14.505Z,69.02
2022-12-06T22:34:41.127Z,68.02
2022-12-06T22:37:07.815Z,67.91
2022-12-06T22:39:34.475Z,67.64
2022-12-06T22:42:01.488Z,67.15
2022-12-06T22:44:28.325Z,67.69
2022-12-06T22:46:55.017Z,68.85
2022-12-06T22:49:24.062Z,67.16
2022-12-06T22:51:50.909Z,68.12
2022-12-06T22:54:17.525Z,68.71
2022-12-06T22:56:49.768Z,68.36
2022-12-06T22:59:17.054Z,67.06
2022-12-06T23:01:43.883Z,68.00
2022-12-06T23:04:11.271Z,68.53
2022-12-06T23:06:38.464Z,68.59
2022-12-06T23:09:06.487Z,68.54
2022-12-06T23:11:35.353Z,67.89
2022-12-06T23:14:04.174Z,68.27
2022-12-06T23:16:31.658Z,67.32
2022-12-06T23:19:03.597Z,67.27
2022-12-06T23:21:32.363Z,67.10
2022-12-06T23:24:10.394Z,67.87
2022-12-06T23:26:43.548Z,68.00
2022-12-06T23:29:10.599Z,67.23
2022-12-06T23:31:39.936Z,66.78
2022-12-06T23:34:11.401Z,67.34
2022-12-06T23:36:37.950Z,67.13
2022-12-06T23:39:05.005Z,67.86
2022-12-06T23:41:31.986Z,66.29
2022-12-06T23:43:58.918Z,66.15
2022-12-06T23:46:28.744Z,66.09
2022-12-06T23:48:55.623Z,66.03
2022-12-06T23:51:31.526Z,65.85
2022-12-06T23:53:59.113Z,65.92
2022-12-06T23:56:33.820Z,65.24
2022-12-06T23:59:00.428Z,65.46
